createdAt,value
2022-12-24T06:14:00.287Z,99123.34
2022-12-24T06:43:26.908Z,99124.34
2022-12-24T08:06:10.470Z,99108.94
2022-12-24T08:28:55.222Z,99118.75
2022-12-24T08:32:28.439Z,99119.69
2022-12-24T08:33:33.249Z,99121.91
2022-12-24T08:34:42.714Z,99122.59
2022-12-24T08:35:56.904Z,99115.59
2022-12-24T08:37:04.656Z,99114.13
2022-12-24T08:38:08.575Z,99120.63
2022-12-24T08:39:11.958Z,99121.53
2022-12-24T08:40:27.890Z,99116.47
2022-12-24T08:41:51.908Z,99113.81
2022-12-24T08:43:09.152Z,99115.97
2022-12-24T08:44:15.004Z,99105.63
2022-12-24T08:45:52.413Z,99117.00
2022-12-24T08:47:01.661Z,99117.16
2022-12-24T08:48:07.363Z,99114.72
2022-12-24T08:49:14.757Z,99109.50
2022-12-24T08:50:21.138Z,99108.63
2022-12-24T08:51:37.113Z,99113.81
2022-12-24T08:52:48.663Z,99110.47
2022-12-24T08:53:59.645Z,99107.31
2022-12-24T08:55:06.029Z,99100.25
2022-12-24T08:56:15.925Z,99099.84
2022-12-24T08:57:23.116Z,99095.63
2022-12-24T08:58:42.439Z,99104.91
2022-12-24T08:59:56.965Z,99102.28
2022-12-24T09:01:04.972Z,99098.78
2022-12-24T09:02:13.770Z,99101.72
2022-12-24T09:03:49.743Z,99094.53
2022-12-24T09:04:52.197Z,99081.66
2022-12-24T09:06:07.481Z,99089.19
2022-12-24T09:07:11.279Z,99095.41
2022-12-24T09:08:15.113Z,99090.72
2022-12-24T09:09:23.378Z,99084.41
2022-12-24T09:10:31.077Z,99094.97
2022-12-24T09:11:47.543Z,99092.38
2022-12-24T09:13:01.879Z,99088.47
2022-12-24T09:14:20.962Z,99093.88
2022-12-24T09:15:31.326Z,99086.44
2022-12-24T09:16:37.453Z,99092.66
2022-12-24T09:17:44.963Z,99083.78
2022-12-24T09:18:53.253Z,99085.31
2022-12-24T09:20:00.326Z,99091.69
2022-12-24T09:21:15.144Z,99091.56
2022-12-24T09:22:22.646Z,99082.44
2022-12-24T09:23:25.550Z,99085.31
2022-12-24T09:24:27.461Z,99085.31
2022-12-24T09:25:30.163Z,99090.78
2022-12-24T09:26:32.920Z,99082.13
2022-12-24T09:27:35.060Z,99075.94
2022-12-24T09:28:45.456Z,99083.72
2022-12-24T09:29:49.840Z,99087.53
2022-12-24T09:31:03.956Z,99076.91
2022-12-24T09:32:12.183Z,99073.16
2022-12-24T09:33:33.488Z,99075.94
2022-12-24T09:34:37.435Z,99070.47
2022-12-24T09:35:40.428Z,99073.63
2022-12-24T09:36:45.275Z,99070.16
2022-12-24T09:38:05.775Z,99076.59
2022-12-24T09:39:09.947Z,99065.84
2022-12-24T09:40:24.705Z,99068.16
2022-12-24T09:41:39.566Z,99070.59
2022-12-24T09:42:50.192Z,99073.94
2022-12-24T09:44:04.267Z,99072.47
2022-12-24T09:46:57.146Z,99071.19
2022-12-24T09:49:41.634Z,99073.56
2022-12-24T09:50:59.782Z,99069.47
2022-12-24T09:52:16.371Z,99069.66
2022-12-24T09:53:34.914Z,99073.16
2022-12-24T09:54:52.792Z,99061.69
2022-12-24T09:56:47.838Z,99069.97
2022-12-24T09:58:04.793Z,99063.72
2022-12-24T09:59:25.525Z,99066.47
2022-12-24T10:00:36.903Z,99063.28
2022-12-24T10:01:46.941Z,99057.94
2022-12-24T10:02:52.540Z,99059.41
2022-12-24T10:04:12.116Z,99058.84
2022-12-24T10:05:24.547Z,99063.63
2022-12-24T10:06:49.673Z,99057.94
2022-12-24T10:07:59.613Z,99058.78
2022-12-24T10:09:19.311Z,99062.09
2022-12-24T10:10:39.971Z,99060.81
2022-12-24T10:11:55.047Z,99060.06
2022-12-24T10:13:20.004Z,99067.81
2022-12-24T10:14:35.225Z,99055.03
2022-12-24T10:15:52.380Z,99052.72
2022-12-24T10:17:03.392Z,99062.94
2022-12-24T10:20:00.151Z,99059.03
2022-12-24T10:21:15.874Z,99056.63
2022-12-24T10:22:50.488Z,99057.59
2022-12-24T10:24:09.795Z,99055.69
2022-12-24T10:25:19.001Z,99070.72
2022-12-24T10:26:58.621Z,99060.81
2022-12-24T10:28:42.023Z,99065.13
2022-12-24T10:29:50.814Z,99067.56
2022-12-24T10:31:02.820Z,99067.69
2022-12-24T10:32:31.113Z,99068.91
2022-12-24T10:33:45.729Z,99059.66
2022-12-24T10:34:55.296Z,99053.81
2022-12-24T10:36:09.904Z,99068.34
2022-12-24T10:37:25.941Z,99069.16
2022-12-24T10:38:36.019Z,99069.28
2022-12-24T10:39:40.429Z,99067.06
2022-12-24T10:41:06.484Z,99062.44
2022-12-24T10:42:21.562Z,99066.34
2022-12-24T10:43:38.409Z,99064.53
2022-12-24T10:45:35.174Z,99062.44
2022-12-24T10:46:42.361Z,99063.56
2022-12-24T10:47:55.574Z,99067.13
2022-12-24T10:49:02.356Z,99063.31
2022-12-24T10:50:42.449Z,99068.34
2022-12-24T10:52:16.703Z,99074.25
2022-12-24T10:53:47.291Z,99073.69
2022-12-24T10:55:09.552Z,99070.00
2022-12-24T10:56:44.809Z,99068.88
2022-12-24T10:58:07.089Z,99071.88
2022-12-24T10:59:42.814Z,99080.69
2022-12-24T11:00:54.528Z,99080.25
2022-12-24T11:04:10.998Z,99077.00
2022-12-24T11:05:43.673Z,99072.78
2022-12-24T11:07:21.644Z,99071.72
2022-12-24T11:08:31.277Z,99063.91
2022-12-24T11:09:49.384Z,99068.03
2022-12-24T11:11:01.073Z,99074.44
2022-12-24T11:12:20.843Z,99069.56
2022-12-24T11:13:39.035Z,99083.28
2022-12-24T11:14:44.348Z,99079.31
2022-12-24T11:16:05.416Z,99084.69
2022-12-24T11:17:30.080Z,99088.31
2022-12-24T11:18:40.757Z,99088.72
2022-12-24T11:19:53.654Z,99080.16
2022-12-24T11:21:03.181Z,99089.59
2022-12-24T11:22:33.287Z,99094.72
2022-12-24T11:23:41.998Z,99094.19
2022-12-24T11:26:05.747Z,99094.78
2022-12-24T11:27:30.498Z,99090.16
2022-12-24T11:28:42.181Z,99088.84
2022-12-24T11:29:45.271Z,99087.03
2022-12-24T11:31:06.038Z,99095.63
2022-12-24T11:32:20.101Z,99088.66
2022-12-24T11:33:24.041Z,99096.50
2022-12-24T11:34:40.251Z,99089.06
2022-12-24T11:35:51.059Z,99087.31
2022-12-24T11:37:28.044Z,99084.19
2022-12-24T11:38:45.043Z,99095.44
2022-12-24T11:39:56.572Z,99093.34
2022-12-24T11:41:07.627Z,99093.72
2022-12-24T11:42:49.270Z,99094.88
2022-12-24T11:44:17.027Z,99093.91
2022-12-24T11:45:32.770Z,99096.13
2022-12-24T11:46:41.099Z,99095.00
2022-12-24T11:47:45.600Z,99095.78
2022-12-24T11:49:08.792Z,99103.31
2022-12-24T11:50:29.463Z,99101.91
2022-12-24T11:51:35.346Z,99103.59
2022-12-24T11:52:39.791Z,99112.06
2022-12-24T11:53:52.690Z,99111.81
2022-12-24T11:55:16.752Z,99110.28
2022-12-24T11:56:36.852Z,99115.31
2022-12-24T11:57:48.904Z,99119.75
2022-12-24T11:59:01.674Z,99120.84
2022-12-24T12:00:08.362Z,99125.19
2022-12-24T12:01:24.777Z,99132.13
2022-12-24T12:02:39.892Z,99129.66
2022-12-24T12:03:47.856Z,99121.59
2022-12-24T12:04:52.175Z,99128.69
2022-12-24T12:05:55.895Z,99133.06
2022-12-24T12:07:02.987Z,99130.91
2022-12-24T12:08:16.186Z,99129.78
2022-12-24T12:09:24.846Z,99145.84
2022-12-24T12:10:32.641Z,99132.25
2022-12-24T12:11:35.916Z,99133.41
2022-12-24T12:12:41.826Z,99136.69
2022-12-24T12:13:44.479Z,99132.69
2022-12-24T12:15:06.631Z,99133.50
2022-12-24T12:16:08.845Z,99130.16
2022-12-24T12:17:29.290Z,99142.97
2022-12-24T12:18:49.275Z,99138.28
2022-12-24T12:19:53.352Z,99138.44
2022-12-24T12:21:03.072Z,99140.56
2022-12-24T12:22:11.134Z,99141.16
2022-12-24T12:23:18.972Z,99140.84
2022-12-24T12:24:32.309Z,99145.91
2022-12-24T12:26:15.739Z,99141.66
2022-12-24T12:27:36.979Z,99147.41
2022-12-24T13:41:24.558Z,99227.06
2022-12-24T13:43:19.733Z,99220.72
2022-12-24T13:44:40.717Z,99227.34
2022-12-24T13:45:55.307Z,99228.56
2022-12-24T13:57:06.650Z,99243.41
2022-12-24T14:04:06.464Z,99254.13
2022-12-24T15:04:10.255Z,99328.75
2022-12-24T15:22:31.365Z,99338.63
2022-12-24T15:30:20.760Z,99341.34
2022-12-24T15:33:12.050Z,99351.91
2022-12-24T15:58:54.768Z,99386.09
2022-12-24T16:00:32.936Z,99380.78
2022-12-24T16:03:48.387Z,99390.38
2022-12-24T16:06:04.732Z,99391.00
2022-12-24T16:16:35.281Z,99392.59
2022-12-24T16:22:37.814Z,99400.28
2022-12-24T19:33:26.267Z,99670.97
2022-12-24T19:46:52.755Z,99690.63
